createdAt,value
2023-04-28T00:00:09.714Z,489.00
2023-04-28T00:01:09.712Z,489.00
2023-04-28T00:02:09.771Z,489.00
2023-04-28T00:03:09.942Z,488.00
2023-04-28T00:04:09.899Z,488.00
2023-04-28T00:05:09.968Z,489.00
2023-04-28T00:06:09.806Z,489.00
2023-04-28T00:07:09.840Z,487.00
2023-04-28T00:08:09.849Z,484.00
2023-04-28T00:09:09.865Z,485.00
2023-04-28T00:10:09.926Z,485.00
2023-04-28T00:11:09.945Z,486.00
2023-04-28T00:12:09.942Z,486.00
2023-04-28T00:13:09.982Z,487.00
2023-04-28T00:14:10.001Z,486.00
2023-04-28T00:15:10.010Z,488.00
2023-04-28T00:16:10.054Z,490.00
2023-04-28T00:17:10.134Z,491.00
2023-04-28T00:18:10.120Z,491.00
2023-04-28T00:19:10.077Z,490.00
2023-04-28T00:20:10.140Z,494.00
2023-04-28T00:21:10.142Z,495.00
2023-04-28T00:22:10.165Z,494.00
2023-04-28T00:23:10.162Z,494.00
2023-04-28T00:24:10.243Z,492.00
2023-04-28T00:25:10.220Z,491.00
2023-04-28T00:26:10.249Z,492.00
2023-04-28T00:27:10.260Z,492.00
2023-04-28T00:28:10.384Z,491.00
2023-04-28T00:29:10.310Z,492.00
2023-04-28T00:30:10.358Z,491.00
2023-04-28T00:31:10.440Z,491.00
2023-04-28T00:32:10.540Z,487.00
2023-04-28T00:33:10.506Z,487.00
2023-04-28T00:34:10.439Z,486.00
2023-04-28T00:35:10.429Z,484.00
2023-04-28T00:36:10.486Z,483.00
2023-04-28T00:37:10.509Z,482.00
2023-04-28T00:38:10.519Z,480.00
2023-04-28T00:39:10.530Z,478.00
2023-04-28T00:40:10.570Z,478.00
2023-04-28T00:41:10.596Z,480.00
2023-04-28T00:42:10.600Z,481.00
2023-04-28T00:43:10.657Z,480.00
2023-04-28T00:44:10.670Z,481.00
2023-04-28T00:45:10.680Z,481.00
2023-04-28T00:46:10.722Z,481.00
2023-04-28T00:47:10.743Z,479.00
2023-04-28T00:48:10.764Z,479.00
2023-04-28T00:49:10.799Z,478.00
2023-04-28T00:50:10.818Z,479.00
2023-04-28T00:51:10.881Z,480.00
2023-04-28T00:52:10.878Z,482.00
2023-04-28T00:53:10.937Z,483.00
2023-04-28T00:54:10.936Z,482.00
2023-04-28T00:55:10.955Z,482.00
2023-04-28T00:56:11.008Z,482.00
2023-04-28T00:57:11.011Z,478.00
2023-04-28T00:58:11.067Z,478.00
2023-04-28T00:59:11.067Z,479.00
2023-04-28T01:00:11.106Z,479.00
2023-04-28T01:01:11.205Z,479.00
2023-04-28T01:02:11.274Z,478.00
2023-04-28T01:03:11.315Z,479.00
2023-04-28T01:04:11.356Z,477.00
2023-04-28T01:05:11.270Z,478.00
2023-04-28T01:06:11.256Z,479.00
2023-04-28T01:07:11.288Z,480.00
2023-04-28T01:08:11.345Z,480.00
2023-04-28T01:09:11.356Z,481.00
2023-04-28T01:10:11.349Z,482.00
2023-04-28T01:11:11.403Z,483.00
2023-04-28T01:12:11.420Z,483.00
2023-04-28T01:13:11.442Z,479.00
2023-04-28T01:14:11.492Z,479.00
2023-04-28T01:15:11.489Z,477.00
2023-04-28T01:16:11.595Z,480.00
2023-04-28T01:17:11.559Z,480.00
2023-04-28T01:18:11.620Z,481.00
2023-04-28T01:19:11.597Z,480.00
2023-04-28T01:20:11.600Z,481.00
2023-04-28T01:21:11.654Z,482.00
2023-04-28T01:22:11.694Z,481.00
2023-04-28T01:23:11.723Z,482.00
2023-04-28T01:24:11.761Z,481.00
2023-04-28T01:25:11.795Z,483.00
2023-04-28T01:26:11.831Z,481.00
2023-04-28T01:27:11.840Z,480.00
2023-04-28T01:28:11.947Z,478.00
2023-04-28T01:29:11.910Z,476.00
2023-04-28T01:30:11.973Z,476.00
2023-04-28T01:31:12.005Z,477.00
2023-04-28T01:32:12.020Z,479.00
2023-04-28T01:33:12.048Z,479.00
2023-04-28T01:34:12.065Z,482.00
2023-04-28T01:35:12.142Z,478.00
2023-04-28T01:36:12.141Z,478.00
2023-04-28T01:37:12.184Z,475.00
2023-04-28T01:38:12.229Z,474.00
2023-04-28T01:39:12.215Z,476.00
2023-04-28T01:40:12.247Z,477.00
2023-04-28T01:41:12.286Z,477.00
2023-04-28T01:42:12.326Z,477.00
2023-04-28T01:43:12.366Z,477.00
2023-04-28T01:44:12.415Z,476.00
2023-04-28T01:45:12.470Z,477.00
2023-04-28T01:46:12.512Z,475.00
2023-04-28T01:47:12.528Z,472.00
2023-04-28T01:48:12.586Z,471.00
2023-04-28T01:49:12.599Z,470.00
2023-04-28T01:50:12.626Z,468.00
2023-04-28T01:51:12.656Z,468.00
2023-04-28T01:52:12.682Z,470.00
2023-04-28T01:53:12.735Z,472.00
2023-04-28T01:54:12.749Z,473.00
2023-04-28T01:55:12.787Z,475.00
2023-04-28T01:56:12.841Z,477.00
2023-04-28T01:57:12.850Z,479.00
2023-04-28T01:58:12.879Z,479.00
2023-04-28T01:59:12.918Z,478.00
2023-04-28T02:00:12.940Z,476.00
2023-04-28T02:01:13.107Z,475.00
2023-04-28T02:02:13.051Z,477.00
2023-04-28T02:03:13.218Z,476.00
2023-04-28T02:04:13.230Z,475.00
2023-04-28T02:05:13.169Z,474.00
2023-04-28T02:06:13.172Z,473.00
2023-04-28T02:07:13.229Z,473.00
2023-04-28T02:08:13.284Z,475.00
2023-04-28T02:09:13.290Z,478.00
2023-04-28T02:10:13.361Z,479.00
2023-04-28T02:11:13.394Z,481.00
2023-04-28T02:12:13.410Z,481.00
2023-04-28T02:13:13.480Z,480.00
2023-04-28T02:14:13.696Z,480.00
2023-04-28T02:15:13.536Z,477.00
2023-04-28T02:16:13.675Z,476.00
2023-04-28T02:17:13.627Z,474.00
2023-04-28T02:18:13.658Z,475.00
2023-04-28T02:19:13.692Z,475.00
2023-04-28T02:20:13.777Z,476.00
2023-04-28T02:21:13.773Z,476.00
2023-04-28T02:22:13.828Z,472.00
2023-04-28T02:23:13.905Z,471.00
2023-04-28T02:24:14.069Z,470.00
2023-04-28T02:25:13.986Z,469.00
2023-04-28T02:26:13.989Z,468.00
2023-04-28T02:27:14.083Z,469.00
2023-04-28T02:28:14.128Z,470.00
2023-04-28T02:29:14.137Z,470.00
2023-04-28T02:30:14.200Z,469.00
2023-04-28T02:31:14.294Z,470.00
2023-04-28T02:32:14.264Z,469.00
2023-04-28T02:33:14.313Z,469.00
2023-04-28T02:34:14.509Z,468.00
2023-04-28T02:35:14.377Z,469.00
2023-04-28T02:36:14.416Z,468.00
2023-04-28T02:37:14.515Z,470.00
2023-04-28T02:38:14.503Z,473.00
2023-04-28T02:39:14.516Z,471.00
2023-04-28T02:40:14.591Z,470.00
2023-04-28T02:41:14.632Z,467.00
2023-04-28T02:42:14.665Z,467.00
2023-04-28T02:43:14.698Z,467.00
2023-04-28T02:44:14.926Z,471.00
2023-04-28T02:45:14.818Z,470.00
2023-04-28T02:46:14.813Z,471.00
2023-04-28T02:47:14.880Z,470.00
2023-04-28T02:48:14.927Z,470.00
2023-04-28T02:49:14.941Z,472.00
2023-04-28T02:50:14.999Z,472.00
2023-04-28T02:51:15.085Z,473.00
2023-04-28T02:52:15.121Z,473.00
2023-04-28T02:53:15.142Z,473.00
2023-04-28T02:54:15.407Z,475.00
2023-04-28T02:55:15.244Z,478.00
2023-04-28T02:56:15.300Z,477.00
2023-04-28T02:57:15.325Z,478.00
2023-04-28T02:58:15.355Z,476.00
2023-04-28T02:59:15.425Z,475.00
2023-04-28T03:00:15.475Z,474.00
2023-04-28T03:01:15.598Z,473.00
2023-04-28T03:02:15.578Z,471.00
2023-04-28T03:03:15.770Z,472.00
2023-04-28T03:04:16.094Z,473.00
2023-04-28T03:05:15.724Z,470.00
2023-04-28T03:06:15.745Z,468.00
2023-04-28T03:07:15.764Z,467.00
2023-04-28T03:08:15.831Z,468.00
2023-04-28T03:09:15.885Z,468.00
2023-04-28T03:10:15.966Z,466.00
2023-04-28T03:11:16.019Z,467.00
2023-04-28T03:12:16.026Z,467.00
2023-04-28T03:13:16.090Z,469.00
2023-04-28T03:14:16.357Z,468.00
2023-04-28T03:15:16.193Z,469.00
2023-04-28T03:16:16.323Z,469.00
2023-04-28T03:17:16.459Z,469.00
2023-04-28T03:18:16.328Z,468.00
2023-04-28T03:19:16.380Z,469.00
2023-04-28T03:20:16.498Z,470.00
2023-04-28T03:21:16.512Z,472.00
2023-04-28T03:22:16.523Z,471.00
2023-04-28T03:23:16.530Z,470.00
2023-04-28T03:24:16.759Z,468.00
2023-04-28T03:25:16.603Z,467.00
2023-04-28T03:26:16.657Z,468.00
2023-04-28T03:27:16.764Z,466.00
2023-04-28T03:28:16.802Z,466.00
2023-04-28T03:29:16.786Z,464.00
2023-04-28T03:30:16.813Z,463.00
2023-04-28T03:31:16.880Z,463.00
2023-04-28T03:32:16.977Z,462.00
2023-04-28T03:33:16.983Z,464.00
2023-04-28T03:34:17.189Z,463.00
2023-04-28T03:35:17.301Z,465.00
2023-04-28T03:36:17.136Z,467.00
2023-04-28T03:37:17.186Z,465.00
2023-04-28T03:38:17.244Z,464.00
2023-04-28T03:39:17.282Z,462.00
2023-04-28T03:40:17.324Z,460.00
2023-04-28T03:41:17.363Z,458.00
2023-04-28T03:42:17.463Z,458.00
2023-04-28T03:43:17.520Z,458.00
2023-04-28T03:44:17.789Z,457.00
2023-04-28T03:45:17.595Z,456.00
2023-04-28T03:46:17.711Z,456.00
2023-04-28T03:47:17.676Z,453.00
2023-04-28T03:48:17.807Z,455.00
2023-04-28T03:49:17.890Z,456.00
2023-04-28T03:50:17.831Z,457.00
2023-04-28T03:51:17.934Z,459.00
2023-04-28T03:52:17.936Z,462.00
2023-04-28T03:53:17.993Z,465.00
2023-04-28T03:54:18.221Z,465.00
2023-04-28T03:55:18.094Z,466.00
2023-04-28T03:56:18.188Z,466.00
2023-04-28T03:57:18.213Z,465.00
2023-04-28T03:58:18.300Z,465.00
2023-04-28T03:59:18.346Z,464.00
2023-04-28T04:00:18.370Z,465.00
2023-04-28T04:01:18.434Z,465.00
2023-04-28T04:02:18.544Z,467.00
2023-04-28T04:03:18.754Z,468.00
2023-04-28T04:04:18.866Z,468.00
2023-04-28T04:05:18.753Z,468.00
2023-04-28T04:06:18.671Z,468.00
2023-04-28T04:07:18.762Z,467.00
2023-04-28T04:08:18.764Z,466.00
2023-04-28T04:09:18.810Z,464.00
2023-04-28T04:10:18.884Z,466.00
2023-04-28T04:11:18.939Z,466.00
2023-04-28T04:12:18.976Z,465.00
2023-04-28T04:13:19.015Z,465.00
2023-04-28T04:14:19.187Z,467.00
2023-04-28T04:15:19.130Z,470.00
2023-04-28T04:16:19.273Z,470.00
2023-04-28T04:17:19.281Z,471.00
2023-04-28T04:18:19.348Z,470.00
2023-04-28T04:19:19.365Z,471.00
2023-04-28T04:20:19.411Z,472.00
2023-04-28T04:21:19.482Z,473.00
2023-04-28T04:22:19.547Z,473.00
2023-04-28T04:23:19.584Z,472.00
2023-04-28T04:24:19.630Z,469.00
2023-04-28T04:25:20.951Z,469.00
2023-04-28T04:26:19.693Z,466.00
2023-04-28T04:27:19.669Z,467.00
2023-04-28T04:28:19.725Z,469.00
2023-04-28T04:29:19.668Z,468.00
2023-04-28T04:30:19.654Z,465.00
2023-04-28T04:31:19.743Z,464.00
2023-04-28T04:32:19.616Z,465.00
2023-04-28T04:33:19.632Z,466.00
2023-04-28T04:34:19.619Z,467.00
2023-04-28T04:35:19.679Z,467.00
2023-04-28T04:36:19.618Z,468.00
2023-04-28T04:37:19.580Z,467.00
2023-04-28T04:38:19.593Z,467.00
2023-04-28T04:39:19.561Z,465.00
2023-04-28T04:40:19.581Z,466.00
2023-04-28T04:41:19.534Z,466.00
2023-04-28T04:42:25.406Z,466.00
2023-04-28T04:43:20.542Z,467.00
2023-04-28T04:44:19.908Z,467.00
2023-04-28T04:45:19.525Z,466.00
2023-04-28T04:46:19.604Z,465.00
2023-04-28T04:47:19.508Z,463.00
2023-04-28T04:48:19.495Z,458.00
2023-04-28T04:49:19.492Z,458.00
2023-04-28T04:50:19.493Z,457.00
2023-04-28T04:51:19.468Z,458.00
2023-04-28T04:52:19.522Z,458.00
2023-04-28T04:53:19.601Z,458.00
2023-04-28T04:54:19.635Z,459.00
2023-04-28T04:55:19.686Z,461.00
2023-04-28T04:56:19.709Z,459.00
2023-04-28T04:57:19.986Z,458.00
2023-04-28T04:58:20.125Z,458.00
2023-04-28T04:59:20.005Z,457.00
2023-04-28T05:00:19.873Z,455.00
2023-04-28T05:01:19.936Z,457.00
2023-04-28T05:02:20.156Z,457.00
2023-04-28T05:03:20.058Z,460.00
2023-04-28T05:04:20.456Z,460.00
2023-04-28T05:05:21.734Z,464.00
2023-04-28T05:06:20.086Z,465.00
2023-04-28T05:07:20.078Z,466.00
2023-04-28T05:08:20.086Z,465.00
2023-04-28T05:09:20.066Z,466.00
2023-04-28T05:10:20.076Z,462.00
2023-04-28T05:11:20.076Z,463.00
2023-04-28T05:12:20.035Z,463.00
2023-04-28T05:13:20.038Z,465.00
2023-04-28T05:14:20.020Z,466.00
2023-04-28T05:15:20.048Z,463.00
2023-04-28T05:16:20.090Z,462.00
2023-04-28T05:17:19.989Z,460.00
2023-04-28T05:18:20.008Z,461.00
2023-04-28T05:19:19.995Z,458.00
2023-04-28T05:20:20.002Z,457.00
2023-04-28T05:21:19.982Z,454.00
2023-04-28T05:22:19.972Z,450.00
2023-04-28T05:23:19.974Z,451.00
2023-04-28T05:24:19.942Z,451.00
2023-04-28T05:25:19.959Z,450.00
2023-04-28T05:26:19.953Z,448.00
2023-04-28T05:27:19.964Z,451.00
2023-04-28T05:28:21.819Z,452.00
2023-04-28T05:29:19.951Z,452.00
2023-04-28T05:30:19.910Z,452.00
2023-04-28T05:31:19.912Z,452.00
2023-04-28T05:32:19.963Z,497.00
2023-04-28T05:33:19.913Z,486.00
2023-04-28T05:34:19.973Z,497.00
2023-04-28T05:35:19.952Z,499.00
2023-04-28T05:36:20.018Z,533.00
2023-04-28T05:37:20.044Z,562.00
2023-04-28T05:38:21.457Z,562.00
2023-04-28T05:39:20.060Z,560.00
2023-04-28T05:40:20.029Z,557.00
2023-04-28T05:41:20.043Z,578.00
2023-04-28T05:42:19.992Z,600.00
2023-04-28T05:43:19.997Z,628.00
2023-04-28T05:44:20.040Z,622.00
2023-04-28T05:45:20.014Z,633.00
2023-04-28T05:46:30.030Z,688.00
2023-04-28T05:47:21.090Z,705.00
2023-04-28T05:48:19.989Z,700.00
2023-04-28T05:49:19.965Z,697.00
2023-04-28T05:50:19.993Z,694.00
2023-04-28T05:51:19.950Z,685.00
2023-04-28T05:52:19.985Z,679.00
2023-04-28T05:53:19.935Z,670.00
2023-04-28T05:54:19.976Z,664.00
2023-04-28T05:55:19.911Z,660.00
2023-04-28T05:56:19.948Z,657.00
2023-04-28T05:57:19.923Z,723.00
2023-04-28T05:58:19.933Z,741.00
2023-04-28T05:59:20.006Z,752.00
2023-04-28T06:00:20.128Z,745.00
2023-04-28T06:01:20.196Z,741.00
2023-04-28T06:02:22.671Z,737.00
2023-04-28T06:03:20.329Z,734.00
2023-04-28T06:04:20.392Z,740.00
2023-04-28T06:05:20.346Z,761.00
2023-04-28T06:06:20.243Z,772.00
2023-04-28T06:07:20.147Z,774.00
2023-04-28T06:08:20.181Z,775.00
2023-04-28T06:09:20.073Z,783.00
2023-04-28T06:10:20.100Z,833.00
2023-04-28T06:11:20.105Z,840.00
2023-04-28T06:12:20.067Z,826.00
2023-04-28T06:13:20.032Z,832.00
2023-04-28T06:14:20.170Z,841.00
2023-04-28T06:15:20.019Z,843.00
2023-04-28T06:16:20.096Z,866.00
2023-04-28T06:17:20.030Z,872.00
2023-04-28T06:18:20.027Z,879.00
2023-04-28T06:19:20.647Z,875.00
2023-04-28T06:20:20.500Z,879.00
2023-04-28T06:21:20.038Z,888.00
2023-04-28T06:22:19.983Z,899.00
2023-04-28T06:23:19.962Z,910.00
2023-04-28T06:24:19.975Z,921.00
2023-04-28T06:25:19.993Z,929.00
2023-04-28T06:26:20.004Z,945.00
2023-04-28T06:27:19.966Z,955.00
2023-04-28T06:28:19.933Z,958.00
2023-04-28T06:29:19.953Z,962.00
2023-04-28T06:30:19.918Z,964.00
2023-04-28T06:31:19.986Z,986.00
2023-04-28T06:32:19.966Z,1015.00
2023-04-28T06:33:19.900Z,1033.00
2023-04-28T06:34:19.933Z,1051.00
2023-04-28T06:35:19.912Z,1077.00
2023-04-28T06:36:19.894Z,1089.00
2023-04-28T06:37:19.937Z,1108.00
2023-04-28T06:38:19.861Z,1127.00
2023-04-28T06:39:19.864Z,1138.00
2023-04-28T06:40:19.855Z,1162.00
2023-04-28T06:41:19.855Z,1182.00
2023-04-28T06:42:19.863Z,1218.00
2023-04-28T06:43:19.834Z,1242.00
2023-04-28T06:44:19.876Z,1243.00
2023-04-28T06:45:19.841Z,1242.00
2023-04-28T06:46:19.865Z,1248.00
2023-04-28T06:47:19.826Z,1267.00
2023-04-28T06:48:19.798Z,1275.00
2023-04-28T06:49:19.800Z,1319.00
2023-04-28T06:50:19.782Z,1331.00
2023-04-28T06:51:19.776Z,1338.00
2023-04-28T06:53:19.797Z,1345.00
2023-04-28T06:54:19.871Z,1362.00
2023-04-28T06:55:19.749Z,1379.00
2023-04-28T06:56:19.749Z,1400.00
2023-04-28T06:57:19.749Z,1419.00
2023-04-28T06:58:19.720Z,1428.00
2023-04-28T06:59:19.769Z,1436.00
2023-04-28T07:00:19.730Z,1447.00
2023-04-28T07:01:19.813Z,1463.00
2023-04-28T07:02:19.754Z,1477.00
2023-04-28T07:03:19.742Z,1504.00
2023-04-28T07:04:20.108Z,1519.00
2023-04-28T07:05:19.673Z,1524.00
2023-04-28T07:06:19.688Z,1532.00
2023-04-28T07:07:19.650Z,1551.00
2023-04-28T07:08:19.646Z,1565.00
2023-04-28T07:09:19.672Z,1611.00
2023-04-28T07:10:20.004Z,1620.00
2023-04-28T07:11:20.073Z,1632.00
2023-04-28T07:12:19.770Z,1642.00
2023-04-28T07:13:19.826Z,1668.00
2023-04-28T07:14:19.842Z,1686.00
2023-04-28T07:15:19.975Z,1695.00
2023-04-28T07:16:20.011Z,1703.00
2023-04-28T07:17:20.026Z,1710.00
2023-04-28T07:18:20.084Z,1725.00
2023-04-28T07:19:20.127Z,1766.00
2023-04-28T07:20:20.146Z,1807.00
2023-04-28T07:21:20.230Z,1823.00
2023-04-28T07:22:20.311Z,1828.00
2023-04-28T07:23:20.343Z,1834.00
2023-04-28T07:24:20.409Z,1844.00
2023-04-28T07:25:20.477Z,1852.00
2023-04-28T07:26:20.536Z,1859.00
2023-04-28T07:27:20.600Z,1863.00
2023-04-28T07:28:20.661Z,1843.00
2023-04-28T07:29:20.685Z,1732.00
2023-04-28T07:30:27.903Z,1706.00
2023-04-28T07:31:21.759Z,1726.00
2023-04-28T07:32:20.783Z,1745.00
2023-04-28T07:33:22.556Z,1544.00
2023-04-28T07:34:20.699Z,1513.00
2023-04-28T07:35:20.714Z,1492.00
2023-04-28T07:36:20.706Z,1469.00
2023-04-28T07:37:20.716Z,1451.00
2023-04-28T07:38:20.643Z,1428.00
2023-04-28T07:39:21.654Z,1282.00
2023-04-28T07:40:20.644Z,1198.00
2023-04-28T07:41:20.625Z,1180.00
2023-04-28T07:42:20.653Z,1157.00
2023-04-28T07:43:20.648Z,1041.00
2023-04-28T07:44:20.846Z,1049.00
2023-04-28T07:45:20.651Z,1026.00
2023-04-28T07:46:20.746Z,944.00
2023-04-28T07:47:20.771Z,937.00
2023-04-28T07:48:20.784Z,931.00
2023-04-28T07:49:20.796Z,880.00
2023-04-28T07:50:20.830Z,867.00
2023-04-28T07:51:20.912Z,799.00
2023-04-28T07:52:20.904Z,776.00
2023-04-28T07:53:21.377Z,737.00
2023-04-28T07:54:20.978Z,737.00
2023-04-28T07:55:20.962Z,731.00
2023-04-28T07:56:20.975Z,729.00
2023-04-28T07:57:21.011Z,735.00
2023-04-28T07:58:21.046Z,733.00
2023-04-28T07:59:21.099Z,704.00
2023-04-28T08:00:21.228Z,701.00
2023-04-28T08:01:21.181Z,695.00
2023-04-28T08:02:21.322Z,692.00
2023-04-28T08:03:21.480Z,696.00
2023-04-28T08:04:21.773Z,694.00
2023-04-28T08:05:21.681Z,696.00
2023-04-28T08:06:21.416Z,700.00
2023-04-28T08:07:21.456Z,706.00
2023-04-28T08:08:21.500Z,705.00
2023-04-28T08:09:21.532Z,705.00
2023-04-28T08:10:21.730Z,704.00
2023-04-28T08:11:21.769Z,685.00
2023-04-28T08:12:21.537Z,665.00
2023-04-28T08:13:21.556Z,661.00
2023-04-28T08:14:21.561Z,652.00
2023-04-28T08:15:21.558Z,660.00
2023-04-28T08:16:21.546Z,664.00
2023-04-28T08:17:21.582Z,669.00
2023-04-28T08:18:21.647Z,686.00
2023-04-28T08:19:21.540Z,686.00
2023-04-28T08:20:24.468Z,687.00
2023-04-28T08:21:21.547Z,686.00
2023-04-28T08:22:21.528Z,681.00
2023-04-28T08:23:22.253Z,673.00
2023-04-28T08:24:21.530Z,670.00
2023-04-28T08:25:21.546Z,667.00
2023-04-28T08:26:21.542Z,678.00
2023-04-28T08:27:21.510Z,677.00
2023-04-28T08:28:21.517Z,662.00
2023-04-28T08:29:21.499Z,652.00
2023-04-28T08:30:21.731Z,637.00
2023-04-28T08:31:21.532Z,625.00
2023-04-28T08:32:21.463Z,610.00
2023-04-28T08:33:21.493Z,580.00
2023-04-28T08:34:21.794Z,571.00
2023-04-28T08:35:21.446Z,563.00
2023-04-28T08:36:21.410Z,551.00
2023-04-28T08:37:21.400Z,547.00
2023-04-28T08:38:22.816Z,539.00
2023-04-28T08:39:21.390Z,532.00
2023-04-28T08:40:21.395Z,511.00
2023-04-28T08:41:21.409Z,506.00
2023-04-28T08:42:21.396Z,500.00
2023-04-28T08:43:21.360Z,497.00
2023-04-28T08:44:21.361Z,500.00
2023-04-28T08:45:21.418Z,501.00
2023-04-28T08:46:21.379Z,497.00
2023-04-28T08:47:21.384Z,490.00
2023-04-28T08:48:21.429Z,486.00
2023-04-28T08:49:21.325Z,482.00
2023-04-28T08:50:21.340Z,480.00
2023-04-28T08:51:21.318Z,476.00
2023-04-28T08:52:21.763Z,472.00
2023-04-28T08:53:21.328Z,469.00
2023-04-28T08:54:26.723Z,460.00
2023-04-28T08:55:22.297Z,461.00
2023-04-28T08:56:21.264Z,459.00
2023-04-28T08:57:21.288Z,456.00
2023-04-28T08:58:21.311Z,457.00
2023-04-28T08:59:21.298Z,455.00
2023-04-28T09:00:21.369Z,454.00
2023-04-28T09:01:21.451Z,453.00
2023-04-28T09:02:21.670Z,454.00
2023-04-28T09:03:21.659Z,457.00
2023-04-28T09:04:22.153Z,459.00
2023-04-28T09:05:21.656Z,457.00
2023-04-28T09:06:21.708Z,456.00
2023-04-28T09:07:21.697Z,455.00
2023-04-28T09:08:21.705Z,452.00
2023-04-28T09:09:21.751Z,451.00
2023-04-28T09:10:21.773Z,453.00
2023-04-28T09:11:21.871Z,454.00
2023-04-28T09:12:21.889Z,456.00
2023-04-28T09:13:21.921Z,455.00
2023-04-28T09:14:22.034Z,454.00
2023-04-28T09:15:22.011Z,452.00
2023-04-28T09:16:22.095Z,448.00
2023-04-28T09:17:21.997Z,443.00
2023-04-28T09:18:22.032Z,450.00
2023-04-28T09:19:22.115Z,452.00
2023-04-28T09:20:22.246Z,450.00
2023-04-28T09:21:22.182Z,453.00
2023-04-28T09:22:26.662Z,456.00
2023-04-28T09:23:22.208Z,455.00
2023-04-28T09:24:22.203Z,459.00
2023-04-28T09:25:22.206Z,460.00
2023-04-28T09:26:22.198Z,462.00
2023-04-28T09:27:22.237Z,462.00
2023-04-28T09:28:22.230Z,465.00
2023-04-28T09:29:22.245Z,464.00
2023-04-28T09:30:22.197Z,483.00
2023-04-28T09:31:22.238Z,501.00
2023-04-28T09:32:22.470Z,512.00
2023-04-28T09:33:22.196Z,570.00
2023-04-28T09:34:22.152Z,588.00
2023-04-28T09:35:22.229Z,613.00
2023-04-28T09:36:22.150Z,615.00
2023-04-28T09:37:22.195Z,630.00
2023-04-28T09:38:22.189Z,663.00
2023-04-28T09:39:22.105Z,670.00
2023-04-28T09:40:22.125Z,726.00
2023-04-28T09:41:22.169Z,729.00
2023-04-28T09:42:22.205Z,729.00
2023-04-28T09:43:22.308Z,750.00
2023-04-28T09:44:22.336Z,764.00
2023-04-28T09:45:22.745Z,773.00
2023-04-28T09:46:22.500Z,800.00
2023-04-28T09:47:22.418Z,827.00
2023-04-28T09:48:22.445Z,873.00
2023-04-28T09:49:22.525Z,898.00
2023-04-28T09:50:22.780Z,908.00
2023-04-28T09:51:22.538Z,948.00
2023-04-28T09:52:22.556Z,974.00
2023-04-28T09:53:22.530Z,984.00
2023-04-28T09:54:22.522Z,1010.00
2023-04-28T09:55:22.526Z,1037.00
2023-04-28T09:56:22.540Z,1055.00
2023-04-28T09:57:22.619Z,1071.00
2023-04-28T09:58:22.775Z,1088.00
2023-04-28T09:59:22.802Z,1095.00
2023-04-28T10:00:22.739Z,1113.00
2023-04-28T10:01:22.847Z,1140.00
2023-04-28T10:02:42.838Z,1153.00
2023-04-28T10:03:24.646Z,1164.00
2023-04-28T10:04:22.920Z,1189.00
2023-04-28T10:05:23.288Z,1218.00
2023-04-28T10:06:22.837Z,1229.00
2023-04-28T10:07:22.784Z,1242.00
2023-04-28T10:08:22.800Z,1249.00
2023-04-28T10:09:24.482Z,1268.00
2023-04-28T10:10:22.809Z,1292.00
2023-04-28T10:11:22.798Z,1313.00
2023-04-28T10:12:22.743Z,1326.00
2023-04-28T10:13:22.852Z,1345.00
2023-04-28T10:14:22.758Z,1357.00
2023-04-28T10:15:22.770Z,1373.00
2023-04-28T10:16:22.790Z,1385.00
2023-04-28T10:17:22.798Z,1399.00
2023-04-28T10:18:22.780Z,1417.00
2023-04-28T10:19:22.798Z,1425.00
2023-04-28T10:20:22.883Z,1443.00
2023-04-28T10:21:22.913Z,1457.00
2023-04-28T10:22:22.950Z,1476.00
2023-04-28T10:23:22.980Z,1485.00
2023-04-28T10:24:23.038Z,1498.00
2023-04-28T10:25:23.050Z,1519.00
2023-04-28T10:26:23.009Z,1557.00
2023-04-28T10:27:23.078Z,1566.00
2023-04-28T10:28:23.073Z,1584.00
2023-04-28T10:29:23.111Z,1601.00
2023-04-28T10:30:28.028Z,1618.00
2023-04-28T10:31:24.135Z,1635.00
2023-04-28T10:32:23.143Z,1657.00
2023-04-28T10:33:23.062Z,1674.00
2023-04-28T10:34:23.084Z,1666.00
2023-04-28T10:35:23.081Z,1255.00
2023-04-28T10:36:33.520Z,1037.00
2023-04-28T10:37:24.133Z,1007.00
2023-04-28T10:38:23.388Z,940.00
2023-04-28T10:39:23.057Z,855.00
2023-04-28T10:40:23.296Z,847.00
2023-04-28T10:41:23.299Z,835.00
2023-04-28T10:42:23.009Z,790.00
2023-04-28T10:43:23.011Z,769.00
2023-04-28T10:44:22.973Z,748.00
2023-04-28T10:45:23.007Z,745.00
2023-04-28T10:46:23.063Z,744.00
2023-04-28T10:47:23.040Z,742.00
2023-04-28T10:48:22.974Z,768.00
2023-04-28T10:49:22.943Z,791.00
2023-04-28T10:50:32.438Z,808.00
2023-04-28T10:51:23.976Z,816.00
2023-04-28T10:52:22.963Z,817.00
2023-04-28T10:53:22.930Z,822.00
2023-04-28T10:54:22.920Z,828.00
2023-04-28T10:55:22.914Z,826.00
2023-04-28T10:56:22.973Z,815.00
2023-04-28T10:57:23.059Z,805.00
2023-04-28T10:58:22.890Z,841.00
2023-04-28T10:59:22.906Z,820.00
2023-04-28T11:00:22.917Z,805.00
2023-04-28T11:01:23.189Z,790.00
2023-04-28T11:02:22.950Z,782.00
2023-04-28T11:03:22.972Z,785.00
2023-04-28T11:04:22.925Z,775.00
2023-04-28T11:05:23.234Z,765.00
2023-04-28T11:06:22.830Z,758.00
2023-04-28T11:07:22.897Z,759.00
2023-04-28T11:08:22.866Z,763.00
2023-04-28T11:09:22.792Z,760.00
2023-04-28T11:10:22.878Z,767.00
2023-04-28T11:11:22.913Z,780.00
2023-04-28T11:12:22.947Z,786.00
2023-04-28T11:13:23.328Z,791.00
2023-04-28T11:14:23.054Z,795.00
2023-04-28T11:15:23.150Z,795.00
2023-04-28T11:16:23.224Z,794.00
2023-04-28T11:17:23.212Z,845.00
2023-04-28T11:18:23.308Z,865.00
2023-04-28T11:19:23.447Z,838.00
2023-04-28T11:20:23.408Z,784.00
2023-04-28T11:21:23.828Z,764.00
2023-04-28T11:22:23.574Z,737.00
2023-04-28T11:23:23.573Z,736.00
2023-04-28T11:24:23.578Z,746.00
2023-04-28T11:25:23.659Z,731.00
2023-04-28T11:26:23.828Z,722.00
2023-04-28T11:27:23.782Z,714.00
2023-04-28T11:28:23.842Z,707.00
2023-04-28T11:29:23.892Z,704.00
2023-04-28T11:30:24.026Z,699.00
2023-04-28T11:31:24.108Z,695.00
2023-04-28T11:32:24.152Z,694.00
2023-04-28T11:33:24.128Z,688.00
2023-04-28T11:34:24.166Z,684.00
2023-04-28T11:35:24.227Z,680.00
2023-04-28T11:36:24.282Z,675.00
2023-04-28T11:37:24.385Z,670.00
2023-04-28T11:38:24.470Z,668.00
2023-04-28T11:39:24.425Z,667.00
2023-04-28T11:40:24.512Z,663.00
2023-04-28T11:41:24.578Z,660.00
2023-04-28T11:42:24.614Z,656.00
2023-04-28T11:43:27.181Z,656.00
2023-04-28T11:44:24.670Z,657.00
2023-04-28T11:45:24.663Z,660.00
2023-04-28T11:46:24.747Z,660.00
2023-04-28T11:47:24.744Z,657.00
2023-04-28T11:48:24.667Z,655.00
2023-04-28T11:49:24.637Z,657.00
2023-04-28T11:50:24.633Z,656.00
2023-04-28T11:51:24.616Z,654.00
2023-04-28T11:52:24.627Z,653.00
2023-04-28T11:53:24.633Z,651.00
2023-04-28T11:54:24.601Z,647.00
2023-04-28T11:55:24.603Z,644.00
2023-04-28T11:56:24.620Z,642.00
2023-04-28T11:57:24.624Z,642.00
2023-04-28T11:58:24.585Z,640.00
2023-04-28T12:00:24.556Z,635.00
2023-04-28T12:01:24.704Z,633.00
2023-04-28T12:02:24.726Z,632.00
2023-04-28T12:03:24.771Z,631.00
2023-04-28T12:04:24.568Z,633.00
2023-04-28T12:05:24.600Z,636.00
2023-04-28T12:06:24.606Z,638.00
2023-04-28T12:07:24.657Z,639.00
2023-04-28T12:08:24.682Z,638.00
2023-04-28T12:09:24.739Z,640.00
2023-04-28T12:10:24.793Z,640.00
2023-04-28T12:11:25.726Z,639.00
2023-04-28T12:12:34.942Z,639.00
2023-04-28T12:13:25.891Z,639.00
2023-04-28T12:14:24.905Z,637.00
2023-04-28T12:15:24.910Z,636.00
2023-04-28T12:16:24.896Z,633.00
2023-04-28T12:17:24.880Z,633.00
2023-04-28T12:18:24.873Z,631.00
2023-04-28T12:19:24.825Z,631.00
2023-04-28T12:20:24.842Z,629.00
2023-04-28T12:21:24.840Z,628.00
2023-04-28T12:22:24.834Z,628.00
2023-04-28T12:23:24.808Z,627.00
2023-04-28T12:24:24.816Z,627.00
2023-04-28T12:25:24.845Z,627.00
2023-04-28T12:26:24.893Z,625.00